sensor_id;sensor_type;location;lat;lon;timestamp;P1;durP1;ratioP1;P2;durP2;ratioP2
4182;SDS011;2105;52.300;9.182;2024-03-23T00:53:34;23.80;;;11.13;;
4182;SDS011;2105;52.300;9.182;2024-03-23T00:56:00;35.43;;;13.00;;
4182;SDS011;2105;52.300;9.182;2024-03-23T00:58:26;30.23;;;11.33;;
4182;SDS011;2105;52.300;9.182;2024-03-23T01:00:53;23.33;;;11.80;;
4182;SDS011;2105;52.300;9.182;2024-03-23T01:03:18;23.03;;;11.83;;
4182;SDS011;2105;52.300;9.182;2024-03-23T01:08:14;22.20;;;11.63;;
4182;SDS011;2105;52.300;9.182;2024-03-23T01:10:42;28.83;;;12.00;;
4182;SDS011;2105;52.300;9.182;2024-03-23T01:13:08;25.20;;;12.13;;
4182;SDS011;2105;52.300;9.182;2024-03-23T01:15:34;18.63;;;11.40;;
4182;SDS011;2105;52.300;9.182;2024-03-23T01:18:00;26.93;;;12.00;;
4182;SDS011;2105;52.300;9.182;2024-03-23T01:20:27;20.70;;;10.83;;
4182;SDS011;2105;52.300;9.182;2024-03-23T01:22:53;21.50;;;11.90;;
4182;SDS011;2105;52.300;9.182;2024-03-23T01:25:19;27.17;;;11.00;;
4182;SDS011;2105;52.300;9.182;2024-03-23T01:27:46;22.33;;;12.80;;
4182;SDS011;2105;52.300;9.182;2024-03-23T01:30:13;26.17;;;13.80;;
4182;SDS011;2105;52.300;9.182;2024-03-23T01:32:39;27.37;;;14.37;;
4182;SDS011;2105;52.300;9.182;2024-03-23T01:35:05;26.93;;;14.40;;
4182;SDS011;2105;52.300;9.182;2024-03-23T01:37:31;30.47;;;13.73;;
4182;SDS011;2105;52.300;9.182;2024-03-23T01:39:58;31.40;;;13.97;;
4182;SDS011;2105;52.300;9.182;2024-03-23T01:42:24;29.23;;;14.37;;
4182;SDS011;2105;52.300;9.182;2024-03-23T01:44:52;30.53;;;13.57;;
4182;SDS011;2105;52.300;9.182;2024-03-23T01:47:17;29.17;;;12.40;;
4182;SDS011;2105;52.300;9.182;2024-03-23T01:49:44;22.17;;;11.87;;
4182;SDS011;2105;52.300;9.182;2024-03-23T01:52:10;25.43;;;12.70;;
4182;SDS011;2105;52.300;9.182;2024-03-23T01:54:36;33.17;;;13.80;;
4182;SDS011;2105;52.300;9.182;2024-03-23T01:57:03;30.77;;;13.87;;
4182;SDS011;2105;52.300;9.182;2024-03-23T01:59:31;24.63;;;13.40;;
4182;SDS011;2105;52.300;9.182;2024-03-23T02:01:58;26.07;;;14.03;;
4182;SDS011;2105;52.300;9.182;2024-03-23T02:04:26;28.30;;;12.70;;
4182;SDS011;2105;52.300;9.182;2024-03-23T02:06:51;30.07;;;14.67;;
4182;SDS011;2105;52.300;9.182;2024-03-23T02:09:18;37.30;;;13.73;;
4182;SDS011;2105;52.300;9.182;2024-03-23T02:11:44;32.00;;;14.40;;
4182;SDS011;2105;52.300;9.182;2024-03-23T02:14:10;26.73;;;11.23;;
4182;SDS011;2105;52.300;9.182;2024-03-23T02:16:36;24.50;;;11.50;;
4182;SDS011;2105;52.300;9.182;2024-03-23T02:19:04;23.90;;;11.50;;
4182;SDS011;2105;52.300;9.182;2024-03-23T02:21:30;32.80;;;12.60;;
4182;SDS011;2105;52.300;9.182;2024-03-23T02:23:58;23.50;;;10.50;;
4182;SDS011;2105;52.300;9.182;2024-03-23T02:26:24;30.90;;;12.33;;
4182;SDS011;2105;52.300;9.182;2024-03-23T02:28:51;23.60;;;10.60;;
4182;SDS011;2105;52.300;9.182;2024-03-23T02:31:16;26.07;;;11.70;;
4182;SDS011;2105;52.300;9.182;2024-03-23T02:33:43;25.53;;;10.90;;
4182;SDS011;2105;52.300;9.182;2024-03-23T02:36:09;25.70;;;10.77;;
4182;SDS011;2105;52.300;9.182;2024-03-23T02:38:35;28.67;;;10.70;;
4182;SDS011;2105;52.300;9.182;2024-03-23T02:41:03;24.70;;;10.07;;
4182;SDS011;2105;52.300;9.182;2024-03-23T02:43:30;36.17;;;12.90;;
4182;SDS011;2105;52.300;9.182;2024-03-23T02:45:56;27.63;;;11.47;;
4182;SDS011;2105;52.300;9.182;2024-03-23T02:48:23;38.47;;;11.53;;
4182;SDS011;2105;52.300;9.182;2024-03-23T02:50:49;30.83;;;10.70;;
4182;SDS011;2105;52.300;9.182;2024-03-23T02:53:15;25.10;;;11.97;;
4182;SDS011;2105;52.300;9.182;2024-03-23T02:55:42;27.27;;;10.57;;
4182;SDS011;2105;52.300;9.182;2024-03-23T02:58:10;38.97;;;11.83;;
4182;SDS011;2105;52.300;9.182;2024-03-23T03:00:36;26.60;;;10.60;;
4182;SDS011;2105;52.300;9.182;2024-03-23T03:03:03;32.97;;;11.17;;
4182;SDS011;2105;52.300;9.182;2024-03-23T03:05:29;21.07;;;10.53;;
4182;SDS011;2105;52.300;9.182;2024-03-23T03:07:56;27.47;;;10.30;;
4182;SDS011;2105;52.300;9.182;2024-03-23T03:10:21;26.27;;;10.30;;
4182;SDS011;2105;52.300;9.182;2024-03-23T03:12:48;26.10;;;10.20;;
4182;SDS011;2105;52.300;9.182;2024-03-23T03:15:16;26.17;;;10.10;;
4182;SDS011;2105;52.300;9.182;2024-03-23T03:17:42;27.87;;;10.27;;
4182;SDS011;2105;52.300;9.182;2024-03-23T03:20:08;24.00;;;9.87;;
4182;SDS011;2105;52.300;9.182;2024-03-23T03:22:38;24.33;;;8.93;;
4182;SDS011;2105;52.300;9.182;2024-03-23T03:25:05;19.33;;;8.73;;
4182;SDS011;2105;52.300;9.182;2024-03-23T03:27:32;26.30;;;10.13;;
4182;SDS011;2105;52.300;9.182;2024-03-23T03:29:59;25.77;;;10.03;;
4182;SDS011;2105;52.300;9.182;2024-03-23T03:32:28;22.27;;;9.37;;
4182;SDS011;2105;52.300;9.182;2024-03-23T03:34:54;26.97;;;9.80;;
4182;SDS011;2105;52.300;9.182;2024-03-23T03:37:20;24.90;;;9.00;;
4182;SDS011;2105;52.300;9.182;2024-03-23T03:39:46;28.87;;;8.90;;
4182;SDS011;2105;52.300;9.182;2024-03-23T03:42:13;24.93;;;9.37;;
4182;SDS011;2105;52.300;9.182;2024-03-23T03:44:39;25.67;;;9.53;;
4182;SDS011;2105;52.300;9.182;2024-03-23T03:47:05;28.50;;;8.50;;
4182;SDS011;2105;52.300;9.182;2024-03-23T03:49:34;23.57;;;8.53;;
4182;SDS011;2105;52.300;9.182;2024-03-23T03:51:59;24.33;;;9.10;;
4182;SDS011;2105;52.300;9.182;2024-03-23T03:54:27;21.00;;;9.50;;
4182;SDS011;2105;52.300;9.182;2024-03-23T03:56:53;26.27;;;9.47;;
4182;SDS011;2105;52.300;9.182;2024-03-23T03:59:19;30.20;;;9.93;;
4182;SDS011;2105;52.300;9.182;2024-03-23T04:01:45;25.03;;;10.70;;
4182;SDS011;2105;52.300;9.182;2024-03-23T04:04:12;25.03;;;9.93;;
4182;SDS011;2105;52.300;9.182;2024-03-23T04:06:40;30.70;;;10.37;;
4182;SDS011;2105;52.300;9.182;2024-03-23T04:09:07;30.40;;;9.87;;
4182;SDS011;2105;52.300;9.182;2024-03-23T04:11:32;26.23;;;8.97;;
4182;SDS011;2105;52.300;9.182;2024-03-23T04:13:59;18.73;;;9.90;;
4182;SDS011;2105;52.300;9.182;2024-03-23T04:16:26;21.50;;;9.13;;
4182;SDS011;2105;52.300;9.182;2024-03-23T04:18:53;22.00;;;9.47;;
4182;SDS011;2105;52.300;9.182;2024-03-23T04:21:19;19.70;;;8.17;;
4182;SDS011;2105;52.300;9.182;2024-03-23T04:23:47;22.17;;;8.87;;
4182;SDS011;2105;52.300;9.182;2024-03-23T04:26:12;15.80;;;8.13;;
4182;SDS011;2105;52.300;9.182;2024-03-23T04:28:39;21.93;;;8.50;;
4182;SDS011;2105;52.300;9.182;2024-03-23T04:31:05;20.27;;;8.40;;
4182;SDS011;2105;52.300;9.182;2024-03-23T04:33:31;21.70;;;6.90;;
4182;SDS011;2105;52.300;9.182;2024-03-23T04:35:57;23.13;;;7.87;;
4182;SDS011;2105;52.300;9.182;2024-03-23T04:38:24;17.17;;;7.00;;
4182;SDS011;2105;52.300;9.182;2024-03-23T04:40:55;16.50;;;7.00;;
4182;SDS011;2105;52.300;9.182;2024-03-23T04:43:21;22.60;;;7.63;;
4182;SDS011;2105;52.300;9.182;2024-03-23T04:45:48;15.00;;;6.20;;
4182;SDS011;2105;52.300;9.182;2024-03-23T04:48:15;21.80;;;6.93;;
4182;SDS011;2105;52.300;9.182;2024-03-23T04:50:41;14.87;;;6.90;;
4182;SDS011;2105;52.300;9.182;2024-03-23T04:53:08;20.40;;;7.00;;
4182;SDS011;2105;52.300;9.182;2024-03-23T04:55:35;22.37;;;6.90;;
4182;SDS011;2105;52.300;9.182;2024-03-23T04:58:03;22.27;;;7.07;;
4182;SDS011;2105;52.300;9.182;2024-03-23T05:00:29;18.47;;;7.90;;
4182;SDS011;2105;52.300;9.182;2024-03-23T05:02:56;24.03;;;7.90;;
4182;SDS011;2105;52.300;9.182;2024-03-23T05:05:21;20.80;;;7.67;;
4182;SDS011;2105;52.300;9.182;2024-03-23T05:07:48;20.17;;;7.17;;
4182;SDS011;2105;52.300;9.182;2024-03-23T05:10:14;24.33;;;7.87;;
4182;SDS011;2105;52.300;9.182;2024-03-23T05:12:41;17.17;;;7.33;;
4182;SDS011;2105;52.300;9.182;2024-03-23T05:15:08;14.03;;;6.83;;
4182;SDS011;2105;52.300;9.182;2024-03-23T05:17:35;24.10;;;7.83;;
4182;SDS011;2105;52.300;9.182;2024-03-23T05:20:01;15.50;;;7.13;;
4182;SDS011;2105;52.300;9.182;2024-03-23T05:22:28;21.70;;;7.70;;
4182;SDS011;2105;52.300;9.182;2024-03-23T05:24:54;23.33;;;8.27;;
4182;SDS011;2105;52.300;9.182;2024-03-23T05:27:21;17.60;;;7.67;;
4182;SDS011;2105;52.300;9.182;2024-03-23T05:29:46;22.73;;;8.40;;
4182;SDS011;2105;52.300;9.182;2024-03-23T05:32:15;24.67;;;7.90;;
4182;SDS011;2105;52.300;9.182;2024-03-23T05:34:40;19.97;;;8.43;;
4182;SDS011;2105;52.300;9.182;2024-03-23T05:37:07;21.73;;;8.03;;
4182;SDS011;2105;52.300;9.182;2024-03-23T05:39:33;25.80;;;8.80;;
4182;SDS011;2105;52.300;9.182;2024-03-23T05:41:59;25.57;;;9.67;;
4182;SDS011;2105;52.300;9.182;2024-03-23T05:44:26;35.73;;;10.90;;
4182;SDS011;2105;52.300;9.182;2024-03-23T05:46:52;26.87;;;10.97;;
4182;SDS011;2105;52.300;9.182;2024-03-23T05:49:20;39.13;;;11.77;;
4182;SDS011;2105;52.300;9.182;2024-03-23T05:51:46;34.47;;;11.27;;
4182;SDS011;2105;52.300;9.182;2024-03-23T05:54:12;32.67;;;12.00;;
4182;SDS011;2105;52.300;9.182;2024-03-23T05:56:39;25.83;;;10.73;;
4182;SDS011;2105;52.300;9.182;2024-03-23T05:59:05;39.87;;;11.77;;
4182;SDS011;2105;52.300;9.182;2024-03-23T06:01:32;35.77;;;12.00;;
4182;SDS011;2105;52.300;9.182;2024-03-23T06:03:57;31.60;;;11.03;;
4182;SDS011;2105;52.300;9.182;2024-03-23T06:06:27;32.27;;;11.13;;
4182;SDS011;2105;52.300;9.182;2024-03-23T06:08:55;37.07;;;12.20;;
4182;SDS011;2105;52.300;9.182;2024-03-23T06:11:21;26.60;;;11.50;;
4182;SDS011;2105;52.300;9.182;2024-03-23T06:13:47;34.97;;;11.83;;
4182;SDS011;2105;52.300;9.182;2024-03-23T06:16:14;45.97;;;12.37;;
4182;SDS011;2105;52.300;9.182;2024-03-23T06:18:39;38.23;;;11.83;;
4182;SDS011;2105;52.300;9.182;2024-03-23T06:21:08;26.10;;;11.50;;
4182;SDS011;2105;52.300;9.182;2024-03-23T06:23:39;44.73;;;11.50;;
4182;SDS011;2105;52.300;9.182;2024-03-23T06:26:06;33.13;;;11.90;;
4182;SDS011;2105;52.300;9.182;2024-03-23T06:28:32;25.63;;;11.53;;
4182;SDS011;2105;52.300;9.182;2024-03-23T06:30:59;39.40;;;13.80;;
4182;SDS011;2105;52.300;9.182;2024-03-23T06:33:24;30.67;;;12.87;;
4182;SDS011;2105;52.300;9.182;2024-03-23T06:35:51;36.20;;;12.57;;
4182;SDS011;2105;52.300;9.182;2024-03-23T06:38:17;45.73;;;14.00;;
4182;SDS011;2105;52.300;9.182;2024-03-23T06:40:45;31.57;;;13.13;;
4182;SDS011;2105;52.300;9.182;2024-03-23T06:43:13;34.40;;;12.23;;
4182;SDS011;2105;52.300;9.182;2024-03-23T06:45:40;40.90;;;13.37;;
4182;SDS011;2105;52.300;9.182;2024-03-23T06:48:06;39.77;;;13.30;;
4182;SDS011;2105;52.300;9.182;2024-03-23T06:50:33;39.37;;;12.67;;
4182;SDS011;2105;52.300;9.182;2024-03-23T06:52:59;35.80;;;12.67;;
4182;SDS011;2105;52.300;9.182;2024-03-23T06:55:27;29.77;;;11.90;;
4182;SDS011;2105;52.300;9.182;2024-03-23T06:57:54;35.47;;;12.60;;
4182;SDS011;2105;52.300;9.182;2024-03-23T07:00:21;37.77;;;11.90;;
4182;SDS011;2105;52.300;9.182;2024-03-23T07:02:46;34.47;;;11.23;;
4182;SDS011;2105;52.300;9.182;2024-03-23T07:05:13;33.63;;;11.47;;
4182;SDS011;2105;52.300;9.182;2024-03-23T07:07:39;31.53;;;10.50;;
4182;SDS011;2105;52.300;9.182;2024-03-23T07:10:06;29.27;;;10.90;;
4182;SDS011;2105;52.300;9.182;2024-03-23T07:12:32;33.57;;;11.23;;
4182;SDS011;2105;52.300;9.182;2024-03-23T07:15:00;32.43;;;11.20;;
4182;SDS011;2105;52.300;9.182;2024-03-23T07:17:26;42.30;;;10.60;;
4182;SDS011;2105;52.300;9.182;2024-03-23T07:19:53;26.70;;;10.93;;
4182;SDS011;2105;52.300;9.182;2024-03-23T07:22:19;26.30;;;11.13;;
4182;SDS011;2105;52.300;9.182;2024-03-23T07:24:45;17.77;;;9.63;;
4182;SDS011;2105;52.300;9.182;2024-03-23T07:27:11;27.07;;;10.53;;
4182;SDS011;2105;52.300;9.182;2024-03-23T07:29:38;36.20;;;10.47;;
4182;SDS011;2105;52.300;9.182;2024-03-23T07:32:05;25.90;;;11.07;;
4182;SDS011;2105;52.300;9.182;2024-03-23T07:34:32;37.40;;;10.47;;
4182;SDS011;2105;52.300;9.182;2024-03-23T07:37:00;32.80;;;11.23;;
4182;SDS011;2105;52.300;9.182;2024-03-23T07:39:28;33.47;;;11.53;;
4182;SDS011;2105;52.300;9.182;2024-03-23T07:41:54;28.27;;;11.30;;
4182;SDS011;2105;52.300;9.182;2024-03-23T07:44:21;37.57;;;11.43;;
4182;SDS011;2105;52.300;9.182;2024-03-23T07:46:46;33.67;;;11.40;;
4182;SDS011;2105;52.300;9.182;2024-03-23T07:49:15;39.13;;;11.17;;
4182;SDS011;2105;52.300;9.182;2024-03-23T07:51:40;39.63;;;12.50;;
4182;SDS011;2105;52.300;9.182;2024-03-23T07:54:07;40.40;;;12.40;;
4182;SDS011;2105;52.300;9.182;2024-03-23T07:56:33;32.13;;;12.00;;
4182;SDS011;2105;52.300;9.182;2024-03-23T07:59:00;47.90;;;12.03;;
4182;SDS011;2105;52.300;9.182;2024-03-23T08:01:28;28.70;;;11.60;;
4182;SDS011;2105;52.300;9.182;2024-03-23T08:03:55;39.23;;;11.80;;
4182;SDS011;2105;52.300;9.182;2024-03-23T08:06:22;34.47;;;12.30;;
4182;SDS011;2105;52.300;9.182;2024-03-23T08:08:51;32.33;;;12.60;;
4182;SDS011;2105;52.300;9.182;2024-03-23T08:11:24;34.97;;;11.60;;
4182;SDS011;2105;52.300;9.182;2024-03-23T08:13:51;35.23;;;12.60;;
4182;SDS011;2105;52.300;9.182;2024-03-23T08:16:17;28.07;;;12.03;;
4182;SDS011;2105;52.300;9.182;2024-03-23T08:18:44;31.23;;;11.17;;
4182;SDS011;2105;52.300;9.182;2024-03-23T08:21:09;35.90;;;11.80;;
4182;SDS011;2105;52.300;9.182;2024-03-23T08:23:38;32.93;;;12.63;;
4182;SDS011;2105;52.300;9.182;2024-03-23T08:26:05;26.37;;;11.63;;
4182;SDS011;2105;52.300;9.182;2024-03-23T08:28:32;28.27;;;11.70;;
4182;SDS011;2105;52.300;9.182;2024-03-23T08:31:00;23.10;;;12.10;;
4182;SDS011;2105;52.300;9.182;2024-03-23T08:33:28;30.30;;;11.87;;
4182;SDS011;2105;52.300;9.182;2024-03-23T08:35:56;34.87;;;12.03;;
4182;SDS011;2105;52.300;9.182;2024-03-23T08:38:24;32.30;;;11.27;;
4182;SDS011;2105;52.300;9.182;2024-03-23T08:40:57;32.73;;;12.83;;
4182;SDS011;2105;52.300;9.182;2024-03-23T08:43:24;24.77;;;12.33;;
4182;SDS011;2105;52.300;9.182;2024-03-23T08:45:51;29.00;;;11.70;;
4182;SDS011;2105;52.300;9.182;2024-03-23T08:48:18;31.13;;;14.27;;
4182;SDS011;2105;52.300;9.182;2024-03-23T08:50:45;30.37;;;11.97;;
4182;SDS011;2105;52.300;9.182;2024-03-23T08:53:12;32.57;;;12.60;;
4182;SDS011;2105;52.300;9.182;2024-03-23T08:55:38;26.80;;;13.47;;
4182;SDS011;2105;52.300;9.182;2024-03-23T09:10:38;27.23;;;13.67;;
4182;SDS011;2105;52.300;9.182;2024-03-23T09:13:09;23.00;;;12.87;;
4182;SDS011;2105;52.300;9.182;2024-03-23T09:15:35;27.20;;;13.53;;
4182;SDS011;2105;52.300;9.182;2024-03-23T09:18:17;24.70;;;12.93;;
4182;SDS011;2105;52.300;9.182;2024-03-23T09:20:46;23.53;;;13.73;;
4182;SDS011;2105;52.300;9.182;2024-03-23T09:23:12;25.47;;;13.60;;
4182;SDS011;2105;52.300;9.182;2024-03-23T09:26:02;25.37;;;13.47;;
4182;SDS011;2105;52.300;9.182;2024-03-23T09:28:38;30.63;;;13.80;;
4182;SDS011;2105;52.300;9.182;2024-03-23T09:31:06;19.30;;;11.80;;
4182;SDS011;2105;52.300;9.182;2024-03-23T09:33:48;29.33;;;15.03;;
4182;SDS011;2105;52.300;9.182;2024-03-23T09:36:42;36.17;;;13.07;;
4182;SDS011;2105;52.300;9.182;2024-03-23T09:39:09;21.67;;;13.80;;
4182;SDS011;2105;52.300;9.182;2024-03-23T09:41:34;21.43;;;13.30;;
4182;SDS011;2105;52.300;9.182;2024-03-23T09:44:01;19.00;;;13.63;;
4182;SDS011;2105;52.300;9.182;2024-03-23T09:46:27;24.53;;;15.87;;
4182;SDS011;2105;52.300;9.182;2024-03-23T09:48:54;22.80;;;16.60;;
4182;SDS011;2105;52.300;9.182;2024-03-23T09:51:21;23.27;;;20.87;;
4182;SDS011;2105;52.300;9.182;2024-03-23T09:53:50;29.37;;;15.57;;
4182;SDS011;2105;52.300;9.182;2024-03-23T09:56:17;19.03;;;15.40;;
4182;SDS011;2105;52.300;9.182;2024-03-23T09:58:43;20.33;;;15.00;;
4182;SDS011;2105;52.300;9.182;2024-03-23T10:01:09;25.43;;;21.53;;
4182;SDS011;2105;52.300;9.182;2024-03-23T10:03:42;20.97;;;15.70;;
4182;SDS011;2105;52.300;9.182;2024-03-23T10:06:08;16.40;;;14.70;;
4182;SDS011;2105;52.300;9.182;2024-03-23T10:08:34;25.50;;;22.90;;
4182;SDS011;2105;52.300;9.182;2024-03-23T10:11:12;23.23;;;20.70;;
4182;SDS011;2105;52.300;9.182;2024-03-23T10:13:41;23.53;;;20.97;;
4182;SDS011;2105;52.300;9.182;2024-03-23T10:16:07;23.67;;;20.73;;
4182;SDS011;2105;52.300;9.182;2024-03-23T10:18:36;27.07;;;19.30;;
4182;SDS011;2105;52.300;9.182;2024-03-23T10:21:09;23.00;;;19.80;;
4182;SDS011;2105;52.300;9.182;2024-03-23T10:23:37;24.07;;;21.47;;
4182;SDS011;2105;52.300;9.182;2024-03-23T10:26:13;21.43;;;19.23;;
4182;SDS011;2105;52.300;9.182;2024-03-23T10:28:52;24.03;;;21.73;;
4182;SDS011;2105;52.300;9.182;2024-03-23T10:31:26;22.70;;;16.40;;
4182;SDS011;2105;52.300;9.182;2024-03-23T10:33:53;24.00;;;16.70;;
4182;SDS011;2105;52.300;9.182;2024-03-23T10:36:20;20.63;;;16.83;;
4182;SDS011;2105;52.300;9.182;2024-03-23T10:38:47;18.83;;;16.90;;
4182;SDS011;2105;52.300;9.182;2024-03-23T10:41:16;19.47;;;16.20;;
4182;SDS011;2105;52.300;9.182;2024-03-23T10:43:54;18.50;;;16.60;;
4182;SDS011;2105;52.300;9.182;2024-03-23T10:46:21;21.53;;;19.10;;
4182;SDS011;2105;52.300;9.182;2024-03-23T10:48:48;22.73;;;20.53;;
4182;SDS011;2105;52.300;9.182;2024-03-23T10:51:14;24.50;;;18.97;;
4182;SDS011;2105;52.300;9.182;2024-03-23T10:53:41;23.43;;;16.90;;
4182;SDS011;2105;52.300;9.182;2024-03-23T10:56:07;23.93;;;16.60;;
4182;SDS011;2105;52.300;9.182;2024-03-23T10:58:38;19.83;;;16.13;;
4182;SDS011;2105;52.300;9.182;2024-03-23T11:01:06;16.37;;;14.53;;
4182;SDS011;2105;52.300;9.182;2024-03-23T11:03:33;17.87;;;15.57;;
4182;SDS011;2105;52.300;9.182;2024-03-23T11:06:01;17.60;;;14.40;;
4182;SDS011;2105;52.300;9.182;2024-03-23T11:08:34;17.63;;;14.60;;
4182;SDS011;2105;52.300;9.182;2024-03-23T11:11:14;17.67;;;14.63;;
4182;SDS011;2105;52.300;9.182;2024-03-23T11:13:53;19.97;;;14.80;;
4182;SDS011;2105;52.300;9.182;2024-03-23T11:16:22;17.33;;;14.30;;
4182;SDS011;2105;52.300;9.182;2024-03-23T11:18:49;14.60;;;13.30;;
4182;SDS011;2105;52.300;9.182;2024-03-23T11:24:27;14.13;;;12.70;;
4182;SDS011;2105;52.300;9.182;2024-03-23T11:26:53;16.37;;;11.50;;
4182;SDS011;2105;52.300;9.182;2024-03-23T11:29:21;13.47;;;11.00;;
4182;SDS011;2105;52.300;9.182;2024-03-23T11:31:47;12.13;;;10.60;;
4182;SDS011;2105;52.300;9.182;2024-03-23T11:34:14;14.67;;;10.40;;
4182;SDS011;2105;52.300;9.182;2024-03-23T11:36:41;15.33;;;10.20;;
4182;SDS011;2105;52.300;9.182;2024-03-23T11:39:11;12.20;;;8.90;;
4182;SDS011;2105;52.300;9.182;2024-03-23T11:41:44;13.00;;;9.00;;
4182;SDS011;2105;52.300;9.182;2024-03-23T11:44:16;14.83;;;8.63;;
4182;SDS011;2105;52.300;9.182;2024-03-23T11:46:47;11.53;;;9.23;;
4182;SDS011;2105;52.300;9.182;2024-03-23T11:49:21;12.47;;;10.10;;
4182;SDS011;2105;52.300;9.182;2024-03-23T11:51:47;10.57;;;8.90;;
4182;SDS011;2105;52.300;9.182;2024-03-23T11:54:14;14.83;;;8.70;;
4182;SDS011;2105;52.300;9.182;2024-03-23T11:56:40;11.43;;;8.87;;
4182;SDS011;2105;52.300;9.182;2024-03-23T11:59:35;13.60;;;9.50;;
4182;SDS011;2105;52.300;9.182;2024-03-23T12:02:06;18.63;;;10.00;;
4182;SDS011;2105;52.300;9.182;2024-03-23T12:04:33;12.43;;;9.33;;
4182;SDS011;2105;52.300;9.182;2024-03-23T12:07:10;13.47;;;9.00;;
4182;SDS011;2105;52.300;9.182;2024-03-23T12:09:38;9.53;;;7.47;;
4182;SDS011;2105;52.300;9.182;2024-03-23T12:12:08;11.17;;;7.30;;
4182;SDS011;2105;52.300;9.182;2024-03-23T12:14:38;7.90;;;7.20;;
4182;SDS011;2105;52.300;9.182;2024-03-23T12:17:08;8.40;;;7.70;;
4182;SDS011;2105;52.300;9.182;2024-03-23T12:19:35;7.83;;;7.13;;
4182;SDS011;2105;52.300;9.182;2024-03-23T12:22:02;6.93;;;6.23;;
4182;SDS011;2105;52.300;9.182;2024-03-23T12:24:29;10.30;;;6.20;;
4182;SDS011;2105;52.300;9.182;2024-03-23T12:26:59;6.37;;;5.73;;
4182;SDS011;2105;52.300;9.182;2024-03-23T12:29:27;6.50;;;6.00;;
4182;SDS011;2105;52.300;9.182;2024-03-23T12:31:55;9.40;;;7.03;;
4182;SDS011;2105;52.300;9.182;2024-03-23T12:34:21;7.30;;;6.50;;
4182;SDS011;2105;52.300;9.182;2024-03-23T12:36:47;8.10;;;7.40;;
4182;SDS011;2105;52.300;9.182;2024-03-23T12:39:14;8.67;;;8.00;;
4182;SDS011;2105;52.300;9.182;2024-03-23T12:41:39;9.47;;;8.47;;
4182;SDS011;2105;52.300;9.182;2024-03-23T12:44:06;9.03;;;8.10;;
4182;SDS011;2105;52.300;9.182;2024-03-23T12:46:33;9.60;;;8.80;;
4182;SDS011;2105;52.300;9.182;2024-03-23T12:49:01;11.57;;;9.73;;
4182;SDS011;2105;52.300;9.182;2024-03-23T12:51:27;12.13;;;9.80;;
4182;SDS011;2105;52.300;9.182;2024-03-23T12:53:54;10.27;;;9.23;;
4182;SDS011;2105;52.300;9.182;2024-03-23T12:56:20;11.37;;;10.50;;
4182;SDS011;2105;52.300;9.182;2024-03-23T12:58:46;12.50;;;11.20;;
4182;SDS011;2105;52.300;9.182;2024-03-23T13:01:16;11.33;;;10.37;;
4182;SDS011;2105;52.300;9.182;2024-03-23T13:03:45;12.30;;;11.43;;
4182;SDS011;2105;52.300;9.182;2024-03-23T13:08:40;14.30;;;13.30;;
4182;SDS011;2105;52.300;9.182;2024-03-23T13:11:09;15.37;;;14.27;;
4182;SDS011;2105;52.300;9.182;2024-03-23T13:13:35;15.07;;;13.87;;
4182;SDS011;2105;52.300;9.182;2024-03-23T13:16:02;14.83;;;13.73;;
4182;SDS011;2105;52.300;9.182;2024-03-23T13:18:28;14.80;;;13.50;;
4182;SDS011;2105;52.300;9.182;2024-03-23T13:20:55;14.40;;;13.30;;
4182;SDS011;2105;52.300;9.182;2024-03-23T13:23:21;16.43;;;15.13;;
4182;SDS011;2105;52.300;9.182;2024-03-23T13:25:52;16.80;;;15.30;;
4182;SDS011;2105;52.300;9.182;2024-03-23T13:28:19;17.30;;;15.60;;
4182;SDS011;2105;52.300;9.182;2024-03-23T13:30:52;23.73;;;14.97;;
4182;SDS011;2105;52.300;9.182;2024-03-23T13:33:18;16.73;;;15.43;;
4182;SDS011;2105;52.300;9.182;2024-03-23T13:35:51;16.87;;;15.30;;
4182;SDS011;2105;52.300;9.182;2024-03-23T13:38:17;16.13;;;14.50;;
4182;SDS011;2105;52.300;9.182;2024-03-23T13:40:52;15.70;;;14.23;;
4182;SDS011;2105;52.300;9.182;2024-03-23T13:43:19;15.37;;;13.97;;
4182;SDS011;2105;52.300;9.182;2024-03-23T13:45:46;14.97;;;13.67;;
4182;SDS011;2105;52.300;9.182;2024-03-23T13:48:22;13.80;;;12.70;;
4182;SDS011;2105;52.300;9.182;2024-03-23T13:50:56;14.33;;;13.20;;
4182;SDS011;2105;52.300;9.182;2024-03-23T13:53:22;12.70;;;11.40;;
4182;SDS011;2105;52.300;9.182;2024-03-23T13:55:49;10.27;;;9.40;;
4182;SDS011;2105;52.300;9.182;2024-03-23T13:58:16;10.17;;;8.90;;
4182;SDS011;2105;52.300;9.182;2024-03-23T14:00:43;7.90;;;7.13;;
4182;SDS011;2105;52.300;9.182;2024-03-23T14:03:09;7.00;;;6.50;;
4182;SDS011;2105;52.300;9.182;2024-03-23T14:05:36;7.40;;;6.90;;
4182;SDS011;2105;52.300;9.182;2024-03-23T14:08:03;7.30;;;6.47;;
4182;SDS011;2105;52.300;9.182;2024-03-23T14:10:30;6.17;;;5.80;;
4182;SDS011;2105;52.300;9.182;2024-03-23T14:12:56;7.00;;;6.60;;
4182;SDS011;2105;52.300;9.182;2024-03-23T14:15:24;7.93;;;7.47;;
4182;SDS011;2105;52.300;9.182;2024-03-23T14:17:49;8.33;;;7.77;;
4182;SDS011;2105;52.300;9.182;2024-03-23T14:20:16;8.40;;;7.80;;
4182;SDS011;2105;52.300;9.182;2024-03-23T14:22:42;8.30;;;7.70;;
4182;SDS011;2105;52.300;9.182;2024-03-23T14:25:09;7.73;;;7.23;;
4182;SDS011;2105;52.300;9.182;2024-03-23T14:27:35;8.37;;;7.77;;
4182;SDS011;2105;52.300;9.182;2024-03-23T14:30:02;10.00;;;8.00;;
4182;SDS011;2105;52.300;9.182;2024-03-23T14:32:30;8.20;;;7.53;;
4182;SDS011;2105;52.300;9.182;2024-03-23T14:34:59;9.10;;;8.30;;
4182;SDS011;2105;52.300;9.182;2024-03-23T14:37:26;9.70;;;8.90;;
4182;SDS011;2105;52.300;9.182;2024-03-23T14:39:51;10.77;;;9.87;;
4182;SDS011;2105;52.300;9.182;2024-03-23T14:42:18;11.97;;;11.10;;
4182;SDS011;2105;52.300;9.182;2024-03-23T14:44:44;13.70;;;12.53;;
4182;SDS011;2105;52.300;9.182;2024-03-23T14:47:10;14.00;;;12.77;;
4182;SDS011;2105;52.300;9.182;2024-03-23T14:49:37;13.10;;;12.03;;
4182;SDS011;2105;52.300;9.182;2024-03-23T14:52:04;13.70;;;12.37;;
4182;SDS011;2105;52.300;9.182;2024-03-23T14:54:30;14.00;;;12.90;;
4182;SDS011;2105;52.300;9.182;2024-03-23T14:56:56;13.67;;;12.20;;
4182;SDS011;2105;52.300;9.182;2024-03-23T14:59:23;12.93;;;11.80;;
4182;SDS011;2105;52.300;9.182;2024-03-23T15:01:50;14.20;;;12.60;;
4182;SDS011;2105;52.300;9.182;2024-03-23T15:04:16;14.00;;;12.57;;
4182;SDS011;2105;52.300;9.182;2024-03-23T15:06:44;13.60;;;12.57;;
4182;SDS011;2105;52.300;9.182;2024-03-23T15:09:11;13.13;;;12.10;;
4182;SDS011;2105;52.300;9.182;2024-03-23T15:11:39;13.27;;;12.20;;
4182;SDS011;2105;52.300;9.182;2024-03-23T15:14:13;9.90;;;8.67;;
4182;SDS011;2105;52.300;9.182;2024-03-23T15:16:39;9.70;;;8.83;;
4182;SDS011;2105;52.300;9.182;2024-03-23T15:19:07;9.40;;;8.60;;
4182;SDS011;2105;52.300;9.182;2024-03-23T15:21:33;11.23;;;8.20;;
4182;SDS011;2105;52.300;9.182;2024-03-23T15:24:01;12.93;;;7.50;;
4182;SDS011;2105;52.300;9.182;2024-03-23T15:26:27;9.57;;;7.80;;
4182;SDS011;2105;52.300;9.182;2024-03-23T15:28:54;8.07;;;7.30;;
4182;SDS011;2105;52.300;9.182;2024-03-23T15:31:35;6.87;;;6.20;;
4182;SDS011;2105;52.300;9.182;2024-03-23T15:34:01;6.30;;;5.70;;
4182;SDS011;2105;52.300;9.182;2024-03-23T15:36:27;6.57;;;5.63;;
4182;SDS011;2105;52.300;9.182;2024-03-23T15:38:54;7.80;;;6.13;;
4182;SDS011;2105;52.300;9.182;2024-03-23T15:41:21;6.90;;;5.60;;
4182;SDS011;2105;52.300;9.182;2024-03-23T15:43:55;16.73;;;6.97;;
4182;SDS011;2105;52.300;9.182;2024-03-23T15:46:20;9.60;;;6.40;;
4182;SDS011;2105;52.300;9.182;2024-03-23T15:48:47;8.50;;;6.70;;
4182;SDS011;2105;52.300;9.182;2024-03-23T15:51:14;7.33;;;6.73;;
4182;SDS011;2105;52.300;9.182;2024-03-23T15:53:40;7.93;;;7.23;;
4182;SDS011;2105;52.300;9.182;2024-03-23T15:56:06;9.70;;;7.90;;
4182;SDS011;2105;52.300;9.182;2024-03-23T15:58:34;12.73;;;8.20;;
4182;SDS011;2105;52.300;9.182;2024-03-23T16:01:00;10.10;;;8.20;;
4182;SDS011;2105;52.300;9.182;2024-03-23T16:03:28;13.77;;;8.10;;
4182;SDS011;2105;52.300;9.182;2024-03-23T16:05:54;9.10;;;8.30;;
4182;SDS011;2105;52.300;9.182;2024-03-23T16:08:22;9.63;;;8.70;;
4182;SDS011;2105;52.300;9.182;2024-03-23T16:10:48;9.73;;;8.80;;